sensor_id;sensor_type;location;lat;lon;timestamp;P1;durP1;ratioP1;P2;durP2;ratioP2
19137;SDS011;68178;52.188;5.598;2023-04-03T00:01:54;2.72;;;1.40;;
19137;SDS011;68178;52.188;5.598;2023-04-03T00:04:20;3.67;;;1.40;;
19137;SDS011;68178;52.188;5.598;2023-04-03T00:06:46;1.30;;;0.90;;
19137;SDS011;68178;52.188;5.598;2023-04-03T00:09:12;3.92;;;1.20;;
19137;SDS011;68178;52.188;5.598;2023-04-03T00:11:38;4.03;;;1.58;;
19137;SDS011;68178;52.188;5.598;2023-04-03T00:14:04;2.88;;;1.30;;
19137;SDS011;68178;52.188;5.598;2023-04-03T00:16:30;1.48;;;1.17;;
19137;SDS011;68178;52.188;5.598;2023-04-03T00:18:56;4.10;;;1.67;;
19137;SDS011;68178;52.188;5.598;2023-04-03T00:21:22;1.75;;;1.27;;
19137;SDS011;68178;52.188;5.598;2023-04-03T00:23:48;2.92;;;1.55;;
19137;SDS011;68178;52.188;5.598;2023-04-03T00:26:15;2.88;;;1.63;;
19137;SDS011;68178;52.188;5.598;2023-04-03T00:28:41;2.35;;;1.20;;
19137;SDS011;68178;52.188;5.598;2023-04-03T00:31:07;2.92;;;1.52;;
19137;SDS011;68178;52.188;5.598;2023-04-03T00:33:33;2.25;;;1.15;;
19137;SDS011;68178;52.188;5.598;2023-04-03T00:35:59;3.28;;;1.40;;
19137;SDS011;68178;52.188;5.598;2023-04-03T00:38:25;2.50;;;1.65;;
19137;SDS011;68178;52.188;5.598;2023-04-03T00:40:51;2.88;;;1.23;;
19137;SDS011;68178;52.188;5.598;2023-04-03T00:43:18;4.50;;;1.42;;
19137;SDS011;68178;52.188;5.598;2023-04-03T00:45:53;3.92;;;1.75;;
19137;SDS011;68178;52.188;5.598;2023-04-03T00:48:21;3.78;;;1.25;;
19137;SDS011;68178;52.188;5.598;2023-04-03T00:50:48;3.05;;;1.13;;
19137;SDS011;68178;52.188;5.598;2023-04-03T00:53:19;4.38;;;1.35;;
19137;SDS011;68178;52.188;5.598;2023-04-03T00:55:47;1.98;;;1.38;;
19137;SDS011;68178;52.188;5.598;2023-04-03T00:58:14;4.28;;;1.63;;
19137;SDS011;68178;52.188;5.598;2023-04-03T01:00:42;5.45;;;1.73;;
19137;SDS011;68178;52.188;5.598;2023-04-03T01:03:10;4.70;;;2.90;;
19137;SDS011;68178;52.188;5.598;2023-04-03T01:05:36;1.80;;;1.20;;
19137;SDS011;68178;52.188;5.598;2023-04-03T01:08:02;5.43;;;1.42;;
19137;SDS011;68178;52.188;5.598;2023-04-03T01:10:28;2.30;;;1.42;;
19137;SDS011;68178;52.188;5.598;2023-04-03T01:12:55;2.20;;;1.73;;
19137;SDS011;68178;52.188;5.598;2023-04-03T01:15:25;5.57;;;1.70;;
19137;SDS011;68178;52.188;5.598;2023-04-03T01:25:24;3.97;;;1.55;;
19137;SDS011;68178;52.188;5.598;2023-04-03T01:27:51;4.25;;;1.45;;
19137;SDS011;68178;52.188;5.598;2023-04-03T01:30:18;4.63;;;1.70;;
19137;SDS011;68178;52.188;5.598;2023-04-03T01:32:45;3.45;;;1.85;;
19137;SDS011;68178;52.188;5.598;2023-04-03T01:35:11;4.03;;;1.55;;
19137;SDS011;68178;52.188;5.598;2023-04-03T01:37:37;1.83;;;1.50;;
19137;SDS011;68178;52.188;5.598;2023-04-03T01:40:03;3.58;;;1.95;;
19137;SDS011;68178;52.188;5.598;2023-04-03T01:42:30;8.32;;;2.03;;
19137;SDS011;68178;52.188;5.598;2023-04-03T01:44:56;3.92;;;1.77;;
19137;SDS011;68178;52.188;5.598;2023-04-03T01:47:22;2.47;;;1.50;;
19137;SDS011;68178;52.188;5.598;2023-04-03T01:49:48;5.25;;;1.90;;
19137;SDS011;68178;52.188;5.598;2023-04-03T01:52:14;4.18;;;1.40;;
19137;SDS011;68178;52.188;5.598;2023-04-03T01:54:40;3.50;;;1.60;;
19137;SDS011;68178;52.188;5.598;2023-04-03T01:57:06;3.67;;;1.75;;
19137;SDS011;68178;52.188;5.598;2023-04-03T01:59:32;3.63;;;1.52;;
19137;SDS011;68178;52.188;5.598;2023-04-03T02:01:58;3.25;;;1.77;;
19137;SDS011;68178;52.188;5.598;2023-04-03T02:04:24;6.50;;;1.88;;
19137;SDS011;68178;52.188;5.598;2023-04-03T02:06:50;3.42;;;1.95;;
19137;SDS011;68178;52.188;5.598;2023-04-03T02:09:16;7.93;;;2.03;;
19137;SDS011;68178;52.188;5.598;2023-04-03T02:11:42;5.50;;;1.80;;
19137;SDS011;68178;52.188;5.598;2023-04-03T02:14:08;5.43;;;1.80;;
19137;SDS011;68178;52.188;5.598;2023-04-03T02:16:34;5.03;;;1.95;;
19137;SDS011;68178;52.188;5.598;2023-04-03T02:19:00;3.22;;;1.80;;
19137;SDS011;68178;52.188;5.598;2023-04-03T02:21:26;4.10;;;1.60;;
19137;SDS011;68178;52.188;5.598;2023-04-03T02:23:52;6.82;;;1.98;;
19137;SDS011;68178;52.188;5.598;2023-04-03T02:26:18;3.08;;;1.70;;
19137;SDS011;68178;52.188;5.598;2023-04-03T02:28:44;3.53;;;2.17;;
19137;SDS011;68178;52.188;5.598;2023-04-03T02:31:11;4.20;;;1.98;;
19137;SDS011;68178;52.188;5.598;2023-04-03T02:33:37;4.47;;;1.67;;
19137;SDS011;68178;52.188;5.598;2023-04-03T02:36:04;3.30;;;1.65;;
19137;SDS011;68178;52.188;5.598;2023-04-03T02:38:30;4.32;;;1.80;;
19137;SDS011;68178;52.188;5.598;2023-04-03T02:41:00;4.50;;;1.67;;
19137;SDS011;68178;52.188;5.598;2023-04-03T02:43:26;4.50;;;2.05;;
19137;SDS011;68178;52.188;5.598;2023-04-03T02:45:52;2.03;;;1.60;;
19137;SDS011;68178;52.188;5.598;2023-04-03T02:48:18;5.53;;;2.05;;
19137;SDS011;68178;52.188;5.598;2023-04-03T02:50:44;5.60;;;1.60;;
19137;SDS011;68178;52.188;5.598;2023-04-03T02:53:10;5.38;;;1.95;;
19137;SDS011;68178;52.188;5.598;2023-04-03T02:55:36;5.15;;;1.58;;
19137;SDS011;68178;52.188;5.598;2023-04-03T02:58:02;3.42;;;1.70;;
19137;SDS011;68178;52.188;5.598;2023-04-03T03:00:28;4.38;;;1.95;;
19137;SDS011;68178;52.188;5.598;2023-04-03T03:02:54;4.18;;;2.08;;
19137;SDS011;68178;52.188;5.598;2023-04-03T03:05:23;5.88;;;2.13;;
19137;SDS011;68178;52.188;5.598;2023-04-03T03:07:49;6.25;;;2.20;;
19137;SDS011;68178;52.188;5.598;2023-04-03T03:10:15;5.53;;;2.00;;
19137;SDS011;68178;52.188;5.598;2023-04-03T03:12:41;2.67;;;1.92;;
19137;SDS011;68178;52.188;5.598;2023-04-03T03:15:07;5.35;;;2.00;;
19137;SDS011;68178;52.188;5.598;2023-04-03T03:17:33;5.55;;;2.10;;
19137;SDS011;68178;52.188;5.598;2023-04-03T03:20:00;3.55;;;2.25;;
19137;SDS011;68178;52.188;5.598;2023-04-03T03:22:27;8.27;;;2.35;;
19137;SDS011;68178;52.188;5.598;2023-04-03T03:24:53;4.82;;;2.17;;
19137;SDS011;68178;52.188;5.598;2023-04-03T03:27:19;7.40;;;2.53;;
19137;SDS011;68178;52.188;5.598;2023-04-03T03:29:46;8.27;;;2.50;;
19137;SDS011;68178;52.188;5.598;2023-04-03T03:32:12;6.07;;;2.13;;
19137;SDS011;68178;52.188;5.598;2023-04-03T03:34:38;3.80;;;2.10;;
19137;SDS011;68178;52.188;5.598;2023-04-03T03:37:04;5.25;;;2.67;;
19137;SDS011;68178;52.188;5.598;2023-04-03T03:39:30;3.22;;;2.03;;
19137;SDS011;68178;52.188;5.598;2023-04-03T03:41:56;5.30;;;2.90;;
19137;SDS011;68178;52.188;5.598;2023-04-03T03:44:22;5.55;;;2.30;;
19137;SDS011;68178;52.188;5.598;2023-04-03T03:46:48;5.65;;;2.47;;
19137;SDS011;68178;52.188;5.598;2023-04-03T03:49:14;3.53;;;2.20;;
19137;SDS011;68178;52.188;5.598;2023-04-03T03:51:40;6.10;;;3.45;;
19137;SDS011;68178;52.188;5.598;2023-04-03T03:54:06;5.32;;;2.42;;
19137;SDS011;68178;52.188;5.598;2023-04-03T03:56:32;4.13;;;2.63;;
19137;SDS011;68178;52.188;5.598;2023-04-03T03:58:58;5.18;;;2.42;;
19137;SDS011;68178;52.188;5.598;2023-04-03T04:01:27;3.22;;;2.22;;
19137;SDS011;68178;52.188;5.598;2023-04-03T04:03:53;7.18;;;2.95;;
19137;SDS011;68178;52.188;5.598;2023-04-03T04:06:19;5.95;;;2.28;;
19137;SDS011;68178;52.188;5.598;2023-04-03T04:08:46;6.72;;;2.40;;
19137;SDS011;68178;52.188;5.598;2023-04-03T04:11:12;6.80;;;2.35;;
19137;SDS011;68178;52.188;5.598;2023-04-03T04:13:38;7.57;;;2.42;;
19137;SDS011;68178;52.188;5.598;2023-04-03T04:16:04;6.25;;;2.53;;
19137;SDS011;68178;52.188;5.598;2023-04-03T04:18:30;8.55;;;3.03;;
19137;SDS011;68178;52.188;5.598;2023-04-03T04:20:56;5.50;;;2.65;;
19137;SDS011;68178;52.188;5.598;2023-04-03T04:23:22;3.67;;;2.22;;
19137;SDS011;68178;52.188;5.598;2023-04-03T04:25:48;8.90;;;3.05;;
19137;SDS011;68178;52.188;5.598;2023-04-03T04:28:15;7.22;;;2.40;;
19137;SDS011;68178;52.188;5.598;2023-04-03T04:30:41;7.35;;;2.40;;
19137;SDS011;68178;52.188;5.598;2023-04-03T04:33:07;8.95;;;3.03;;
19137;SDS011;68178;52.188;5.598;2023-04-03T04:35:33;5.90;;;2.53;;
19137;SDS011;68178;52.188;5.598;2023-04-03T04:37:59;6.15;;;3.20;;
19137;SDS011;68178;52.188;5.598;2023-04-03T04:40:26;6.18;;;2.65;;
19137;SDS011;68178;52.188;5.598;2023-04-03T04:42:52;6.55;;;2.85;;
19137;SDS011;68178;52.188;5.598;2023-04-03T04:45:18;6.13;;;2.47;;
19137;SDS011;68178;52.188;5.598;2023-04-03T04:47:44;3.13;;;2.10;;
19137;SDS011;68178;52.188;5.598;2023-04-03T04:50:10;7.30;;;2.55;;
19137;SDS011;68178;52.188;5.598;2023-04-03T04:52:36;7.72;;;3.13;;
19137;SDS011;68178;52.188;5.598;2023-04-03T04:55:03;8.13;;;2.92;;
19137;SDS011;68178;52.188;5.598;2023-04-03T04:57:29;5.47;;;2.65;;
19137;SDS011;68178;52.188;5.598;2023-04-03T04:59:55;4.50;;;2.38;;
19137;SDS011;68178;52.188;5.598;2023-04-03T05:02:21;7.93;;;3.55;;
19137;SDS011;68178;52.188;5.598;2023-04-03T05:04:47;9.73;;;3.72;;
19137;SDS011;68178;52.188;5.598;2023-04-03T05:07:15;13.63;;;8.00;;
19137;SDS011;68178;52.188;5.598;2023-04-03T05:09:41;12.68;;;7.70;;
19137;SDS011;68178;52.188;5.598;2023-04-03T05:12:07;10.18;;;7.03;;
19137;SDS011;68178;52.188;5.598;2023-04-03T05:14:33;14.60;;;11.18;;
19137;SDS011;68178;52.188;5.598;2023-04-03T05:16:59;6.70;;;6.10;;
19137;SDS011;68178;52.188;5.598;2023-04-03T05:19:25;7.57;;;3.85;;
19137;SDS011;68178;52.188;5.598;2023-04-03T05:21:51;10.20;;;4.40;;
19137;SDS011;68178;52.188;5.598;2023-04-03T05:24:17;11.40;;;4.80;;
19137;SDS011;68178;52.188;5.598;2023-04-03T05:26:43;9.20;;;4.35;;
19137;SDS011;68178;52.188;5.598;2023-04-03T05:29:09;6.10;;;3.53;;
19137;SDS011;68178;52.188;5.598;2023-04-03T05:31:35;9.95;;;3.95;;
19137;SDS011;68178;52.188;5.598;2023-04-03T05:34:01;9.68;;;3.22;;
19137;SDS011;68178;52.188;5.598;2023-04-03T05:36:28;7.78;;;4.13;;
19137;SDS011;68178;52.188;5.598;2023-04-03T05:38:54;4.82;;;3.03;;
19137;SDS011;68178;52.188;5.598;2023-04-03T05:41:21;8.07;;;3.30;;
19137;SDS011;68178;52.188;5.598;2023-04-03T05:43:47;5.20;;;2.65;;
19137;SDS011;68178;52.188;5.598;2023-04-03T05:46:14;9.70;;;3.00;;
19137;SDS011;68178;52.188;5.598;2023-04-03T05:48:41;7.85;;;3.30;;
19137;SDS011;68178;52.188;5.598;2023-04-03T05:51:09;7.93;;;6.68;;
19137;SDS011;68178;52.188;5.598;2023-04-03T05:53:39;6.57;;;3.00;;
19137;SDS011;68178;52.188;5.598;2023-04-03T05:56:05;7.65;;;3.63;;
19137;SDS011;68178;52.188;5.598;2023-04-03T05:58:31;7.13;;;3.25;;
19137;SDS011;68178;52.188;5.598;2023-04-03T06:00:57;6.63;;;2.90;;
19137;SDS011;68178;52.188;5.598;2023-04-03T06:03:24;7.22;;;3.05;;
19137;SDS011;68178;52.188;5.598;2023-04-03T06:05:51;4.35;;;2.75;;
19137;SDS011;68178;52.188;5.598;2023-04-03T06:08:17;7.38;;;2.60;;
19137;SDS011;68178;52.188;5.598;2023-04-03T06:10:43;4.82;;;2.55;;
19137;SDS011;68178;52.188;5.598;2023-04-03T06:13:09;9.98;;;6.43;;
19137;SDS011;68178;52.188;5.598;2023-04-03T06:15:36;7.60;;;3.35;;
19137;SDS011;68178;52.188;5.598;2023-04-03T06:18:03;8.05;;;3.33;;
19137;SDS011;68178;52.188;5.598;2023-04-03T06:20:29;6.60;;;3.20;;
19137;SDS011;68178;52.188;5.598;2023-04-03T06:22:56;7.38;;;4.22;;
19137;SDS011;68178;52.188;5.598;2023-04-03T06:25:22;5.07;;;2.63;;
19137;SDS011;68178;52.188;5.598;2023-04-03T06:27:48;3.58;;;2.00;;
19137;SDS011;68178;52.188;5.598;2023-04-03T06:30:14;3.65;;;2.25;;
19137;SDS011;68178;52.188;5.598;2023-04-03T06:32:40;6.50;;;2.33;;
19137;SDS011;68178;52.188;5.598;2023-04-03T06:35:06;5.97;;;2.30;;
19137;SDS011;68178;52.188;5.598;2023-04-03T06:37:32;5.10;;;2.28;;
19137;SDS011;68178;52.188;5.598;2023-04-03T06:39:58;3.60;;;2.33;;
19137;SDS011;68178;52.188;5.598;2023-04-03T06:42:25;7.80;;;2.67;;
19137;SDS011;68178;52.188;5.598;2023-04-03T06:44:51;4.07;;;2.17;;
19137;SDS011;68178;52.188;5.598;2023-04-03T06:47:17;5.68;;;2.50;;
19137;SDS011;68178;52.188;5.598;2023-04-03T06:49:43;3.63;;;2.13;;
19137;SDS011;68178;52.188;5.598;2023-04-03T06:52:09;4.13;;;2.53;;
19137;SDS011;68178;52.188;5.598;2023-04-03T06:54:37;5.63;;;2.03;;
19137;SDS011;68178;52.188;5.598;2023-04-03T06:57:03;7.13;;;1.95;;
19137;SDS011;68178;52.188;5.598;2023-04-03T06:59:29;4.00;;;1.75;;
19137;SDS011;68178;52.188;5.598;2023-04-03T07:01:55;3.85;;;1.67;;
19137;SDS011;68178;52.188;5.598;2023-04-03T07:04:21;4.80;;;1.85;;
19137;SDS011;68178;52.188;5.598;2023-04-03T07:06:51;2.95;;;1.88;;
19137;SDS011;68178;52.188;5.598;2023-04-03T07:09:17;5.32;;;1.90;;
19137;SDS011;68178;52.188;5.598;2023-04-03T07:11:43;6.88;;;2.00;;
19137;SDS011;68178;52.188;5.598;2023-04-03T07:14:09;7.07;;;2.00;;
19137;SDS011;68178;52.188;5.598;2023-04-03T07:16:35;3.20;;;1.60;;
19137;SDS011;68178;52.188;5.598;2023-04-03T07:19:02;5.03;;;2.00;;
19137;SDS011;68178;52.188;5.598;2023-04-03T07:21:27;3.97;;;1.58;;
19137;SDS011;68178;52.188;5.598;2023-04-03T07:23:54;7.93;;;1.80;;
19137;SDS011;68178;52.188;5.598;2023-04-03T07:26:20;5.95;;;1.70;;
19137;SDS011;68178;52.188;5.598;2023-04-03T07:28:47;3.28;;;1.50;;
19137;SDS011;68178;52.188;5.598;2023-04-03T07:31:14;2.97;;;1.20;;
19137;SDS011;68178;52.188;5.598;2023-04-03T07:33:41;2.92;;;1.35;;
19137;SDS011;68178;52.188;5.598;2023-04-03T07:36:07;2.65;;;1.52;;
19137;SDS011;68178;52.188;5.598;2023-04-03T07:38:34;6.18;;;2.03;;
19137;SDS011;68178;52.188;5.598;2023-04-03T07:41:04;5.32;;;1.75;;
19137;SDS011;68178;52.188;5.598;2023-04-03T07:43:33;5.45;;;1.60;;
19137;SDS011;68178;52.188;5.598;2023-04-03T07:45:59;2.55;;;1.38;;
19137;SDS011;68178;52.188;5.598;2023-04-03T07:48:26;4.07;;;1.67;;
19137;SDS011;68178;52.188;5.598;2023-04-03T07:50:52;5.05;;;1.60;;
19137;SDS011;68178;52.188;5.598;2023-04-03T07:53:18;3.25;;;1.95;;
19137;SDS011;68178;52.188;5.598;2023-04-03T07:55:47;3.03;;;1.35;;
19137;SDS011;68178;52.188;5.598;2023-04-03T07:58:19;4.07;;;1.25;;
19137;SDS011;68178;52.188;5.598;2023-04-03T08:00:45;6.22;;;1.52;;
19137;SDS011;68178;52.188;5.598;2023-04-03T08:03:11;5.57;;;1.35;;
19137;SDS011;68178;52.188;5.598;2023-04-03T08:05:38;5.00;;;1.67;;
19137;SDS011;68178;52.188;5.598;2023-04-03T08:08:05;3.50;;;1.40;;
19137;SDS011;68178;52.188;5.598;2023-04-03T08:10:31;3.45;;;1.13;;
19137;SDS011;68178;52.188;5.598;2023-04-03T08:12:58;6.25;;;1.65;;
19137;SDS011;68178;52.188;5.598;2023-04-03T08:15:24;2.15;;;1.38;;
19137;SDS011;68178;52.188;5.598;2023-04-03T08:17:50;3.67;;;1.73;;
19137;SDS011;68178;52.188;5.598;2023-04-03T08:20:16;3.95;;;1.52;;
19137;SDS011;68178;52.188;5.598;2023-04-03T08:22:42;3.03;;;1.10;;
19137;SDS011;68178;52.188;5.598;2023-04-03T08:25:09;2.58;;;1.10;;
19137;SDS011;68178;52.188;5.598;2023-04-03T08:27:35;3.50;;;1.10;;
19137;SDS011;68178;52.188;5.598;2023-04-03T08:30:02;2.53;;;1.25;;
19137;SDS011;68178;52.188;5.598;2023-04-03T08:32:29;4.78;;;1.15;;
19137;SDS011;68178;52.188;5.598;2023-04-03T08:34:55;1.67;;;1.20;;
19137;SDS011;68178;52.188;5.598;2023-04-03T08:37:21;1.58;;;0.85;;
19137;SDS011;68178;52.188;5.598;2023-04-03T08:39:47;2.00;;;0.93;;
19137;SDS011;68178;52.188;5.598;2023-04-03T08:42:15;1.98;;;1.08;;
19137;SDS011;68178;52.188;5.598;2023-04-03T08:44:46;4.32;;;0.80;;
19137;SDS011;68178;52.188;5.598;2023-04-03T08:49:49;1.17;;;0.60;;
19137;SDS011;68178;52.188;5.598;2023-04-03T08:52:18;2.60;;;0.85;;
19137;SDS011;68178;52.188;5.598;2023-04-03T08:57:14;2.65;;;1.10;;
19137;SDS011;68178;52.188;5.598;2023-04-03T08:59:41;1.73;;;0.90;;
19137;SDS011;68178;52.188;5.598;2023-04-03T09:02:16;2.88;;;1.17;;
19137;SDS011;68178;52.188;5.598;2023-04-03T09:04:47;2.15;;;0.60;;
19137;SDS011;68178;52.188;5.598;2023-04-03T09:07:19;2.60;;;0.70;;
19137;SDS011;68178;52.188;5.598;2023-04-03T09:09:46;2.47;;;0.82;;
19137;SDS011;68178;52.188;5.598;2023-04-03T09:12:17;1.58;;;0.55;;
19137;SDS011;68178;52.188;5.598;2023-04-03T09:17:21;1.80;;;0.60;;
19137;SDS011;68178;52.188;5.598;2023-04-03T09:19:56;1.52;;;0.60;;
19137;SDS011;68178;52.188;5.598;2023-04-03T09:22:25;1.40;;;0.82;;
19137;SDS011;68178;52.188;5.598;2023-04-03T09:25:34;1.65;;;0.57;;
19137;SDS011;68178;52.188;5.598;2023-04-03T09:27:41;1.63;;;0.55;;
19137;SDS011;68178;52.188;5.598;2023-04-03T09:30:15;1.60;;;0.60;;
19137;SDS011;68178;52.188;5.598;2023-04-03T09:32:41;1.70;;;0.70;;
19137;SDS011;68178;52.188;5.598;2023-04-03T09:37:39;3.55;;;0.82;;
19137;SDS011;68178;52.188;5.598;2023-04-03T09:40:06;1.67;;;0.70;;
19137;SDS011;68178;52.188;5.598;2023-04-03T09:42:32;1.55;;;0.40;;
19137;SDS011;68178;52.188;5.598;2023-04-03T09:45:02;1.10;;;0.55;;
19137;SDS011;68178;52.188;5.598;2023-04-03T09:47:33;0.95;;;0.52;;
19137;SDS011;68178;52.188;5.598;2023-04-03T09:52:35;1.20;;;0.45;;
19137;SDS011;68178;52.188;5.598;2023-04-03T09:55:14;1.63;;;0.70;;
19137;SDS011;68178;52.188;5.598;2023-04-03T09:57:40;2.13;;;0.60;;
19137;SDS011;68178;52.188;5.598;2023-04-03T10:00:10;4.35;;;0.52;;
19137;SDS011;68178;52.188;5.598;2023-04-03T10:02:44;1.77;;;0.50;;
19137;SDS011;68178;52.188;5.598;2023-04-03T10:05:30;1.70;;;0.43;;
19137;SDS011;68178;52.188;5.598;2023-04-03T10:10:34;3.53;;;0.60;;
19137;SDS011;68178;52.188;5.598;2023-04-03T10:13:33;1.42;;;0.60;;
19137;SDS011;68178;52.188;5.598;2023-04-03T10:16:03;1.50;;;0.80;;
19137;SDS011;68178;52.188;5.598;2023-04-03T10:21:30;0.55;;;0.40;;
19137;SDS011;68178;52.188;5.598;2023-04-03T10:24:02;4.13;;;0.63;;
19137;SDS011;68178;52.188;5.598;2023-04-03T10:26:39;0.70;;;0.30;;
19137;SDS011;68178;52.188;5.598;2023-04-03T10:34:21;1.73;;;0.50;;
19137;SDS011;68178;52.188;5.598;2023-04-03T10:37:34;1.02;;;0.40;;
19137;SDS011;68178;52.188;5.598;2023-04-03T10:39:57;0.80;;;0.60;;
19137;SDS011;68178;52.188;5.598;2023-04-03T10:42:46;1.70;;;0.43;;
19137;SDS011;68178;52.188;5.598;2023-04-03T10:48:04;0.60;;;0.52;;
19137;SDS011;68178;52.188;5.598;2023-04-03T10:57:54;1.30;;;0.47;;
19137;SDS011;68178;52.188;5.598;2023-04-03T11:00:24;2.53;;;0.68;;
19137;SDS011;68178;52.188;5.598;2023-04-03T11:02:55;0.77;;;0.40;;
19137;SDS011;68178;52.188;5.598;2023-04-03T11:05:26;1.85;;;0.60;;
19137;SDS011;68178;52.188;5.598;2023-04-03T11:07:54;1.67;;;0.60;;
19137;SDS011;68178;52.188;5.598;2023-04-03T11:10:23;1.00;;;0.60;;
19137;SDS011;68178;52.188;5.598;2023-04-03T11:12:52;2.60;;;0.90;;
19137;SDS011;68178;52.188;5.598;2023-04-03T11:15:21;1.55;;;0.70;;
19137;SDS011;68178;52.188;5.598;2023-04-03T11:17:58;2.55;;;1.02;;
19137;SDS011;68178;52.188;5.598;2023-04-03T11:20:26;5.88;;;1.10;;
19137;SDS011;68178;52.188;5.598;2023-04-03T11:23:00;1.27;;;0.80;;
19137;SDS011;68178;52.188;5.598;2023-04-03T11:25:26;0.57;;;0.50;;
19137;SDS011;68178;52.188;5.598;2023-04-03T11:27:59;1.70;;;0.88;;
19137;SDS011;68178;52.188;5.598;2023-04-03T11:33:17;2.45;;;0.60;;
19137;SDS011;68178;52.188;5.598;2023-04-03T11:35:47;0.98;;;0.60;;
19137;SDS011;68178;52.188;5.598;2023-04-03T11:38:23;1.35;;;0.60;;
19137;SDS011;68178;52.188;5.598;2023-04-03T11:40:51;1.15;;;0.63;;
19137;SDS011;68178;52.188;5.598;2023-04-03T11:45:50;0.90;;;0.60;;
19137;SDS011;68178;52.188;5.598;2023-04-03T11:50:47;4.32;;;1.02;;
19137;SDS011;68178;52.188;5.598;2023-04-03T11:58:13;0.65;;;0.50;;
19137;SDS011;68178;52.188;5.598;2023-04-03T12:13:42;0.90;;;0.90;;
19137;SDS011;68178;52.188;5.598;2023-04-03T12:29:33;2.70;;;1.65;;
19137;SDS011;68178;52.188;5.598;2023-04-03T12:40:14;2.50;;;1.02;;
19137;SDS011;68178;52.188;5.598;2023-04-03T12:42:46;3.55;;;1.10;;
19137;SDS011;68178;52.188;5.598;2023-04-03T12:45:21;0.90;;;0.70;;
19137;SDS011;68178;52.188;5.598;2023-04-03T12:47:51;4.88;;;1.58;;
19137;SDS011;68178;52.188;5.598;2023-04-03T12:50:24;1.52;;;0.93;;
19137;SDS011;68178;52.188;5.598;2023-04-03T12:53:05;3.03;;;1.10;;
19137;SDS011;68178;52.188;5.598;2023-04-03T12:55:31;2.40;;;1.02;;
19137;SDS011;68178;52.188;5.598;2023-04-03T12:57:57;1.73;;;1.10;;
19137;SDS011;68178;52.188;5.598;2023-04-03T13:00:38;1.70;;;0.90;;
19137;SDS011;68178;52.188;5.598;2023-04-03T13:03:04;1.40;;;0.93;;
19137;SDS011;68178;52.188;5.598;2023-04-03T13:05:34;1.65;;;1.00;;
19137;SDS011;68178;52.188;5.598;2023-04-03T13:08:02;3.42;;;1.25;;
19137;SDS011;68178;52.188;5.598;2023-04-03T13:10:30;1.25;;;0.93;;
19137;SDS011;68178;52.188;5.598;2023-04-03T13:12:57;1.73;;;0.88;;
19137;SDS011;68178;52.188;5.598;2023-04-03T13:15:39;2.00;;;1.13;;
19137;SDS011;68178;52.188;5.598;2023-04-03T13:18:20;1.65;;;1.00;;
19137;SDS011;68178;52.188;5.598;2023-04-03T13:20:46;2.47;;;1.08;;
19137;SDS011;68178;52.188;5.598;2023-04-03T13:23:13;1.55;;;1.00;;
19137;SDS011;68178;52.188;5.598;2023-04-03T13:25:44;3.15;;;1.20;;
19137;SDS011;68178;52.188;5.598;2023-04-03T13:28:13;1.02;;;0.80;;
19137;SDS011;68178;52.188;5.598;2023-04-03T13:30:40;1.83;;;0.98;;
19137;SDS011;68178;52.188;5.598;2023-04-03T13:33:20;1.77;;;0.80;;
19137;SDS011;68178;52.188;5.598;2023-04-03T13:35:47;3.15;;;0.98;;
19137;SDS011;68178;52.188;5.598;2023-04-03T13:38:22;2.08;;;1.10;;
19137;SDS011;68178;52.188;5.598;2023-04-03T13:40:51;2.35;;;1.00;;
19137;SDS011;68178;52.188;5.598;2023-04-03T13:43:22;1.23;;;0.98;;
19137;SDS011;68178;52.188;5.598;2023-04-03T13:45:59;2.42;;;1.30;;
19137;SDS011;68178;52.188;5.598;2023-04-03T13:48:26;2.63;;;1.25;;
19137;SDS011;68178;52.188;5.598;2023-04-03T13:50:53;1.67;;;1.17;;
19137;SDS011;68178;52.188;5.598;2023-04-03T13:53:20;4.05;;;1.30;;
19137;SDS011;68178;52.188;5.598;2023-04-03T13:58:31;1.45;;;1.05;;
19137;SDS011;68178;52.188;5.598;2023-04-03T14:06:10;2.33;;;1.10;;
19137;SDS011;68178;52.188;5.598;2023-04-03T14:08:36;2.47;;;1.30;;
19137;SDS011;68178;52.188;5.598;2023-04-03T14:11:02;1.75;;;1.02;;
19137;SDS011;68178;52.188;5.598;2023-04-03T14:13:31;1.92;;;1.55;;
19137;SDS011;68178;52.188;5.598;2023-04-03T14:15:57;2.50;;;1.90;;
19137;SDS011;68178;52.188;5.598;2023-04-03T14:18:23;2.42;;;1.40;;
19137;SDS011;68178;52.188;5.598;2023-04-03T14:20:50;2.75;;;1.23;;
19137;SDS011;68178;52.188;5.598;2023-04-03T14:23:16;3.30;;;1.20;;
19137;SDS011;68178;52.188;5.598;2023-04-03T14:25:42;1.70;;;1.33;;
19137;SDS011;68178;52.188;5.598;2023-04-03T14:28:14;2.25;;;1.45;;
19137;SDS011;68178;52.188;5.598;2023-04-03T14:30:40;4.50;;;1.67;;
19137;SDS011;68178;52.188;5.598;2023-04-03T14:33:06;2.92;;;1.58;;
19137;SDS011;68178;52.188;5.598;2023-04-03T14:35:32;3.75;;;1.60;;
19137;SDS011;68178;52.188;5.598;2023-04-03T14:37:58;2.22;;;1.50;;
19137;SDS011;68178;52.188;5.598;2023-04-03T14:40:25;1.83;;;1.45;;
19137;SDS011;68178;52.188;5.598;2023-04-03T14:42:52;4.07;;;1.45;;
19137;SDS011;68178;52.188;5.598;2023-04-03T14:45:20;3.17;;;1.55;;
19137;SDS011;68178;52.188;5.598;2023-04-03T14:47:47;4.18;;;1.42;;
19137;SDS011;68178;52.188;5.598;2023-04-03T14:50:15;1.98;;;1.33;;
19137;SDS011;68178;52.188;5.598;2023-04-03T14:52:42;3.28;;;1.52;;
19137;SDS011;68178;52.188;5.598;2023-04-03T14:55:09;4.57;;;1.42;;
19137;SDS011;68178;52.188;5.598;2023-04-03T14:57:36;3.40;;;1.52;;
19137;SDS011;68178;52.188;5.598;2023-04-03T15:00:04;3.55;;;1.58;;
19137;SDS011;68178;52.188;5.598;2023-04-03T15:02:32;4.05;;;1.52;;
19137;SDS011;68178;52.188;5.598;2023-04-03T15:05:04;2.85;;;1.25;;
19137;SDS011;68178;52.188;5.598;2023-04-03T15:07:32;2.20;;;1.38;;
19137;SDS011;68178;52.188;5.598;2023-04-03T15:10:21;3.15;;;1.65;;
19137;SDS011;68178;52.188;5.598;2023-04-03T15:12:46;2.67;;;1.45;;
19137;SDS011;68178;52.188;5.598;2023-04-03T15:15:12;2.90;;;1.40;;
19137;SDS011;68178;52.188;5.598;2023-04-03T15:17:39;5.18;;;1.60;;
19137;SDS011;68178;52.188;5.598;2023-04-03T15:20:15;4.15;;;1.42;;
19137;SDS011;68178;52.188;5.598;2023-04-03T15:22:41;2.47;;;1.08;;
19137;SDS011;68178;52.188;5.598;2023-04-03T15:25:07;2.22;;;1.20;;
19137;SDS011;68178;52.188;5.598;2023-04-03T15:27:33;2.45;;;1.50;;
19137;SDS011;68178;52.188;5.598;2023-04-03T15:29:59;2.28;;;1.20;;
19137;SDS011;68178;52.188;5.598;2023-04-03T15:32:25;1.70;;;1.50;;
19137;SDS011;68178;52.188;5.598;2023-04-03T15:34:51;3.45;;;1.70;;
19137;SDS011;68178;52.188;5.598;2023-04-03T15:37:17;4.90;;;2.25;;
19137;SDS011;68178;52.188;5.598;2023-04-03T15:39:43;7.10;;;5.07;;
19137;SDS011;68178;52.188;5.598;2023-04-03T15:42:09;3.78;;;2.90;;
19137;SDS011;68178;52.188;5.598;2023-04-03T15:44:37;3.97;;;1.90;;
19137;SDS011;68178;52.188;5.598;2023-04-03T15:47:03;4.38;;;1.75;;
19137;SDS011;68178;52.188;5.598;2023-04-03T15:49:29;4.07;;;1.40;;
19137;SDS011;68178;52.188;5.598;2023-04-03T15:51:55;3.10;;;1.10;;
19137;SDS011;68178;52.188;5.598;2023-04-03T15:54:21;3.45;;;1.13;;
19137;SDS011;68178;52.188;5.598;2023-04-03T15:56:48;1.83;;;1.23;;
19137;SDS011;68178;52.188;5.598;2023-04-03T15:59:14;3.33;;;1.55;;
19137;SDS011;68178;52.188;5.598;2023-04-03T16:01:40;7.18;;;1.42;;
19137;SDS011;68178;52.188;5.598;2023-04-03T16:04:07;2.78;;;1.25;;
19137;SDS011;68178;52.188;5.598;2023-04-03T16:06:34;2.45;;;1.30;;
19137;SDS011;68178;52.188;5.598;2023-04-03T16:09:00;2.15;;;1.38;;
19137;SDS011;68178;52.188;5.598;2023-04-03T16:11:26;2.58;;;1.45;;
19137;SDS011;68178;52.188;5.598;2023-04-03T16:13:52;2.05;;;1.13;;
19137;SDS011;68178;52.188;5.598;2023-04-03T16:16:19;2.47;;;1.23;;
19137;SDS011;68178;52.188;5.598;2023-04-03T16:18:45;1.83;;;1.17;;
19137;SDS011;68178;52.188;5.598;2023-04-03T16:21:14;2.13;;;1.40;;
19137;SDS011;68178;52.188;5.598;2023-04-03T16:23:41;2.05;;;1.10;;
19137;SDS011;68178;52.188;5.598;2023-04-03T16:26:07;4.05;;;2.35;;
19137;SDS011;68178;52.188;5.598;2023-04-03T16:28:33;5.35;;;1.20;;